Time;durP1;ratioP1;P1;durP2;ratioP2;P2;SDS_P1;SDS_P2;PMS_P1;PMS_P2;Temp;Humidity;BMP_temperature;BMP_pressure;BME280_temperature;BME280_humidity;BME280_pressure;Samples;Min_cycle;Max_cycle;Signal;HPM_P1;HPM_P2
2022/08/23 00:02:28;;;;;;;13.53;7.25;;;26.40;99.90;;;;;;1875538;75;21183;-83
2022/08/23 00:04:59;;;;;;;7.97;6.10;;;26.30;99.90;;;;;;1882464;75;21170;-82
2022/08/23 00:07:32;;;;;;;9.35;6.05;;;26.40;99.90;;;;;;1865335;75;21220;-82
2022/08/23 00:10:05;;;;;;;11.80;6.72;;;26.40;99.90;;;;;;1883798;74;21251;-82
2022/08/23 00:12:36;;;;;;;9.63;6.85;;;26.40;99.90;;;;;;1860929;75;21194;-81
2022/08/23 00:15:10;;;;;;;7.40;5.80;;;26.40;99.90;;;;;;1877099;75;21215;-82
2022/08/23 00:17:41;;;;;;;10.28;6.08;;;26.40;99.90;;;;;;1857497;75;21068;-81
2022/08/23 00:20:14;;;;;;;12.07;6.20;;;26.40;99.90;;;;;;1878107;75;21191;-83
2022/08/23 00:22:48;;;;;;;8.80;6.83;;;26.50;99.90;;;;;;1868115;75;21227;-83
2022/08/23 00:25:19;;;;;;;10.20;6.45;;;26.50;99.90;;;;;;1888019;75;21189;-82
2022/08/23 00:27:55;;;;;;;6.90;5.30;;;26.50;99.90;;;;;;1870374;75;21777;-82
2022/08/23 00:30:24;;;;;;;8.15;4.78;;;26.60;99.90;;;;;;1869729;76;21618;-82
2022/08/23 00:32:55;;;;;;;9.03;5.55;;;26.60;99.90;;;;;;1893085;75;21155;-83
2022/08/23 00:35:26;;;;;;;8.85;6.25;;;26.60;99.90;;;;;;1902802;74;21128;-82
2022/08/23 00:37:59;;;;;;;7.28;4.95;;;26.60;99.90;;;;;;1930774;74;21204;-81
2022/08/23 00:40:31;;;;;;;6.97;4.78;;;26.60;99.90;;;;;;1898912;74;21241;-82
2022/08/23 00:48:13;;;;;;;10.03;5.20;;;26.70;99.90;;;;;;1890441;75;21192;-83
2022/08/23 00:50:46;;;;;;;9.68;5.33;;;26.70;99.90;;;;;;1890920;74;21189;-84
2022/08/23 00:53:19;;;;;;;8.20;5.78;;;26.70;99.90;;;;;;1834979;77;21162;-85
2022/08/23 00:55:53;;;;;;;9.68;5.25;;;26.70;99.90;;;;;;1897633;75;21207;-82
2022/08/23 00:58:25;;;;;;;7.53;5.47;;;26.80;99.90;;;;;;1900287;74;21141;-82
2022/08/23 01:00:57;;;;;;;9.08;4.83;;;26.80;99.90;;;;;;1887649;75;21605;-82
2022/08/23 01:03:35;;;;;;;7.55;5.58;;;26.80;99.90;;;;;;1877446;76;21243;-82
2022/08/23 01:06:09;;;;;;;8.40;5.10;;;26.90;99.90;;;;;;1880886;74;21154;-82
2022/08/23 01:08:44;;;;;;;10.72;5.00;;;27.00;99.90;;;;;;1875191;76;21197;-81
2022/08/23 01:11:18;;;;;;;10.13;5.03;;;27.00;99.90;;;;;;1871318;76;21169;-81
2022/08/23 01:13:52;;;;;;;8.45;5.05;;;27.10;99.90;;;;;;1878088;76;21173;-81
2022/08/23 01:16:25;;;;;;;14.80;5.25;;;27.20;99.90;;;;;;1879912;74;21123;-83
2022/08/23 01:18:56;;;;;;;8.68;4.80;;;27.20;99.90;;;;;;1879932;76;21073;-83
2022/08/23 01:21:35;;;;;;;6.92;4.35;;;27.30;99.90;;;;;;1875947;76;21174;-83
2022/08/23 01:24:09;;;;;;;8.68;4.30;;;27.40;99.90;;;;;;1875584;74;21156;-84
2022/08/23 01:26:47;;;;;;;7.65;4.53;;;27.50;99.90;;;;;;1877895;76;21276;-85
2022/08/23 01:29:16;;;;;;;10.15;5.20;;;27.60;99.90;;;;;;1874501;76;21165;-84
2022/08/23 01:31:52;;;;;;;7.05;4.45;;;27.60;99.90;;;;;;1881779;75;21158;-82
2022/08/23 01:34:20;;;;;;;5.37;4.37;;;27.60;99.90;;;;;;1881742;74;21142;-82
2022/08/23 01:36:51;;;;;;;7.03;4.17;;;27.70;99.90;;;;;;1876590;74;21095;-82
2022/08/23 01:39:23;;;;;;;10.15;4.70;;;27.80;99.90;;;;;;1876689;76;21139;-82
2022/08/23 01:41:54;;;;;;;11.85;5.20;;;27.80;99.90;;;;;;1882915;76;21201;-82
2022/08/23 01:44:25;;;;;;;9.30;4.83;;;27.90;99.90;;;;;;1878036;74;21178;-82
2022/08/23 01:46:59;;;;;;;12.50;4.75;;;28.00;99.90;;;;;;1879376;76;21067;-82
2022/08/23 01:49:30;;;;;;;9.63;4.42;;;28.10;99.90;;;;;;1830415;77;21119;-82
2022/08/23 01:52:02;;;;;;;7.00;3.83;;;28.10;99.90;;;;;;1851234;75;21155;-82
2022/08/23 01:54:34;;;;;;;6.15;4.22;;;28.20;99.90;;;;;;1853647;76;21225;-82
2022/08/23 01:57:07;;;;;;;5.70;3.87;;;28.30;99.90;;;;;;1852811;76;21152;-82
2022/08/23 01:59:38;;;;;;;6.10;3.60;;;28.40;99.90;;;;;;1861359;75;21389;-83
2022/08/23 02:02:11;;;;;;;7.50;4.25;;;28.50;99.90;;;;;;1857670;75;21145;-83
2022/08/23 02:04:50;;;;;;;9.98;4.25;;;28.50;99.90;;;;;;1859064;76;21123;-84
2022/08/23 02:07:26;;;;;;;4.87;4.15;;;28.60;99.90;;;;;;1849477;75;21125;-82
2022/08/23 02:10:02;;;;;;;7.22;3.75;;;28.70;99.90;;;;;;1852403;75;21192;-83
2022/08/23 02:12:32;;;;;;;7.80;3.72;;;28.80;99.90;;;;;;1856334;76;21143;-79
2022/08/23 02:15:08;;;;;;;5.05;3.25;;;28.90;99.90;;;;;;1850604;77;21167;-83
2022/08/23 02:17:38;;;;;;;5.85;3.25;;;29.00;99.90;;;;;;1854113;76;21144;-82
2022/08/23 02:20:13;;;;;;;5.72;3.33;;;29.20;99.90;;;;;;1855604;75;21104;-80
2022/08/23 02:22:43;;;;;;;6.95;3.20;;;29.30;99.20;;;;;;1848893;77;21159;-82
2022/08/23 02:25:14;;;;;;;6.45;3.00;;;29.40;99.10;;;;;;1881858;75;21097;-82
2022/08/23 02:27:46;;;;;;;7.12;3.52;;;29.50;98.80;;;;;;1893536;75;21229;-82
2022/08/23 02:30:31;;;;;;;6.43;3.40;;;29.60;98.30;;;;;;1903665;74;21139;-82
2022/08/23 02:33:03;;;;;;;4.92;2.62;;;29.70;98.00;;;;;;1893687;75;21724;-82
2022/08/23 02:35:35;;;;;;;8.70;4.75;;;29.80;98.00;;;;;;1881514;75;21587;-83
2022/08/23 02:38:09;;;;;;;8.28;3.30;;;29.80;98.30;;;;;;1859698;75;21104;-84
2022/08/23 02:40:41;;;;;;;4.95;3.47;;;29.90;97.00;;;;;;1838302;77;21697;-85
2022/08/23 02:43:13;;;;;;;5.15;2.87;;;30.00;97.20;;;;;;1837980;77;21149;-82
2022/08/23 02:45:54;;;;;;;8.53;3.22;;;30.10;97.10;;;;;;1848641;77;21684;-83
2022/08/23 02:48:27;;;;;;;3.80;2.25;;;30.20;96.70;;;;;;1846869;77;21715;-82
2022/08/23 02:51:02;;;;;;;6.78;2.98;;;30.30;94.70;;;;;;1850866;77;21688;-82
2022/08/23 02:53:36;;;;;;;3.92;2.37;;;30.40;95.00;;;;;;1843429;76;21629;-81
2022/08/23 02:56:08;;;;;;;7.50;2.95;;;30.50;95.10;;;;;;1842008;77;21679;-82
2022/08/23 02:58:44;;;;;;;5.05;2.65;;;30.50;95.50;;;;;;1858003;76;21630;-82
2022/08/23 03:01:22;;;;;;;5.12;2.92;;;30.50;95.40;;;;;;1830735;77;21136;-82
2022/08/23 03:03:54;;;;;;;5.50;2.47;;;30.60;95.70;;;;;;1852336;77;21216;-82
2022/08/23 03:06:28;;;;;;;5.10;2.58;;;30.70;94.90;;;;;;1841153;77;21111;-84
2022/08/23 03:09:02;;;;;;;5.45;2.45;;;30.80;95.50;;;;;;1765994;81;21126;-84
2022/08/23 03:11:40;;;;;;;4.55;2.30;;;31.00;94.10;;;;;;1766078;80;21790;-83
2022/08/23 03:14:30;;;;;;;4.22;2.08;;;31.00;94.30;;;;;;1694330;82;21298;-82
2022/08/23 03:17:04;;;;;;;4.83;2.00;;;31.10;92.90;;;;;;1757194;80;21176;-83
2022/08/23 03:19:35;;;;;;;4.85;2.58;;;31.10;92.50;;;;;;1761642;80;21203;-83
2022/08/23 03:22:11;;;;;;;5.33;2.75;;;31.10;93.00;;;;;;1751493;80;21730;-81
2022/08/23 03:25:07;;;;;;;5.10;2.60;;;31.10;93.30;;;;;;1749600;80;21191;-87
2022/08/23 03:27:50;;;;;;;4.22;2.30;;;31.10;93.80;;;;;;1765186;80;21753;-82
2022/08/23 03:31:08;;;;;;;7.62;2.87;;;31.20;93.60;;;;;;1660612;84;21240;-83
2022/08/23 03:36:27;;;;;;;8.73;2.52;;;31.50;92.70;;;;;;1939759;73;22136;-83
2022/08/23 03:38:59;;;;;;;4.70;2.12;;;31.70;92.40;;;;;;1912473;74;21107;-83
2022/08/23 03:41:32;;;;;;;4.25;1.40;;;31.80;92.40;;;;;;1913693;74;21111;-82
2022/08/23 03:44:07;;;;;;;4.28;1.92;;;31.80;90.20;;;;;;1915427;74;21681;-82
2022/08/23 03:46:38;;;;;;;5.05;1.70;;;31.80;90.60;;;;;;1924594;74;21081;-83
2022/08/23 03:49:09;;;;;;;4.72;2.50;;;31.80;91.00;;;;;;1935785;74;21120;-80
2022/08/23 03:51:42;;;;;;;6.42;2.72;;;31.90;91.00;;;;;;1881519;76;21124;-83
2022/08/23 03:54:20;;;;;;;4.62;1.95;;;31.90;90.80;;;;;;1899977;71;21109;-80
2022/08/23 03:56:59;;;;;;;2.72;1.90;;;32.00;91.30;;;;;;1929551;74;21156;-82
2022/08/23 03:59:32;;;;;;;3.35;2.08;;;32.10;91.40;;;;;;1930328;74;21121;-84
2022/08/23 04:02:13;;;;;;;5.50;1.90;;;32.20;91.40;;;;;;1961543;73;21074;-84
2022/08/23 04:04:53;;;;;;;3.05;1.65;;;32.30;89.40;;;;;;1924578;74;21119;-83
2022/08/23 04:07:42;;;;;;;5.05;2.27;;;32.30;89.00;;;;;;1951527;73;21632;-82
2022/08/23 04:10:14;;;;;;;4.42;1.85;;;32.20;90.00;;;;;;1920234;74;21040;-82
2022/08/23 04:12:45;;;;;;;3.80;2.22;;;32.20;90.20;;;;;;1928885;73;21032;-83
2022/08/23 04:15:18;;;;;;;7.10;2.80;;;32.20;90.50;;;;;;1928180;73;21074;-83
2022/08/23 04:17:50;;;;;;;3.58;2.10;;;32.30;90.70;;;;;;1926225;74;21204;-83
2022/08/23 04:20:24;;;;;;;2.72;1.82;;;32.40;90.40;;;;;;1962019;73;21202;-83
2022/08/23 04:22:57;;;;;;;3.50;1.98;;;32.50;90.60;;;;;;1928276;73;21089;-83
2022/08/23 04:25:30;;;;;;;3.98;1.90;;;32.60;90.40;;;;;;1928073;74;21183;-82
2022/08/23 04:28:02;;;;;;;5.15;2.25;;;32.70;89.50;;;;;;1921490;74;21171;-82
2022/08/23 04:30:33;;;;;;;4.53;2.22;;;32.70;88.90;;;;;;1928533;74;21137;-80
2022/08/23 04:33:07;;;;;;;4.40;1.75;;;32.60;90.20;;;;;;1928753;74;21105;-83
2022/08/23 04:35:43;;;;;;;4.17;1.92;;;32.40;88.10;;;;;;1928115;74;21181;-84
2022/08/23 04:38:13;;;;;;;3.98;1.90;;;32.30;89.70;;;;;;1928545;73;21202;-85
2022/08/23 04:43:18;;;;;;;4.70;1.80;;;32.00;90.10;;;;;;1922537;73;21090;-84
2022/08/23 04:45:55;;;;;;;3.45;1.95;;;31.90;88.80;;;;;;1928470;74;21070;-84
2022/08/23 04:48:28;;;;;;;3.72;1.45;;;31.80;89.90;;;;;;1912132;74;21161;-83
2022/08/23 04:50:59;;;;;;;3.12;1.45;;;31.80;89.80;;;;;;1927663;74;21230;-83
2022/08/23 04:53:34;;;;;;;4.42;1.62;;;32.00;90.80;;;;;;1928071;74;21131;-84
2022/08/23 04:56:09;;;;;;;5.20;2.00;;;32.20;90.60;;;;;;1928046;74;21086;-84
2022/08/23 04:58:43;;;;;;;4.75;1.80;;;32.40;88.80;;;;;;1925273;74;21709;-84
2022/08/23 05:01:15;;;;;;;5.65;2.50;;;32.50;88.30;;;;;;1919684;74;21184;-81
2022/08/23 05:03:48;;;;;;;5.72;2.60;;;32.80;90.40;;;;;;1922096;74;21137;-83
2022/08/23 05:06:18;;;;;;;4.03;2.70;;;32.90;90.40;;;;;;1928841;74;21121;-84
2022/08/23 05:08:53;;;;;;;4.37;2.45;;;33.10;91.60;;;;;;1931499;73;21117;-82
2022/08/23 05:11:24;;;;;;;5.12;2.55;;;33.20;90.30;;;;;;1927774;74;21187;-85
2022/08/23 05:13:58;;;;;;;6.35;2.77;;;33.10;90.20;;;;;;1927877;74;21050;-83
2022/08/23 05:16:29;;;;;;;6.47;2.42;;;32.90;90.60;;;;;;1927490;73;21097;-83
2022/08/23 05:19:00;;;;;;;5.75;2.55;;;32.80;91.20;;;;;;1928205;74;21109;-83
2022/08/23 05:21:32;;;;;;;3.77;2.12;;;32.60;91.10;;;;;;1927337;74;21721;-83
2022/08/23 05:24:05;;;;;;;4.85;2.42;;;32.60;91.00;;;;;;1928012;73;21171;-81
2022/08/23 05:26:37;;;;;;;6.00;2.75;;;32.60;91.30;;;;;;1926946;74;21210;-84
2022/08/23 05:29:11;;;;;;;5.30;2.25;;;32.70;92.10;;;;;;1928398;74;21136;-83
2022/08/23 05:31:42;;;;;;;4.53;2.17;;;32.80;90.40;;;;;;1928103;74;21101;-82
2022/08/23 05:34:16;;;;;;;5.87;2.08;;;32.80;90.50;;;;;;1936247;73;21282;-84
2022/08/23 05:36:48;;;;;;;4.50;2.10;;;32.80;90.20;;;;;;1927220;73;21257;-84
2022/08/23 05:39:23;;;;;;;6.25;2.27;;;32.60;91.30;;;;;;1923910;74;21169;-84
2022/08/23 05:41:57;;;;;;;5.45;1.98;;;32.60;90.70;;;;;;1895432;75;21243;-83
2022/08/23 05:44:28;;;;;;;3.47;1.85;;;32.50;90.90;;;;;;1894220;75;21576;-84
2022/08/23 05:47:07;;;;;;;6.10;2.12;;;32.50;90.70;;;;;;1917019;74;21136;-83
2022/08/23 05:49:43;;;;;;;4.20;2.20;;;32.40;90.90;;;;;;1924080;73;21093;-85
2022/08/23 05:52:18;;;;;;;4.08;2.27;;;32.40;90.90;;;;;;1908452;74;21161;-82
2022/08/23 05:54:49;;;;;;;4.95;2.30;;;32.20;90.40;;;;;;1909789;74;21078;-83
2022/08/23 05:57:22;;;;;;;4.85;2.52;;;32.10;90.60;;;;;;1933885;74;21178;-83
2022/08/23 05:59:52;;;;;;;2.60;1.70;;;32.00;91.10;;;;;;1932842;74;21050;-83
2022/08/23 06:02:23;;;;;;;5.42;1.98;;;32.00;91.30;;;;;;1950598;73;21190;-83
2022/08/23 06:04:55;;;;;;;4.50;1.90;;;31.90;91.30;;;;;;1944872;73;21493;-83
2022/08/23 06:07:26;;;;;;;4.47;2.00;;;31.90;91.00;;;;;;1952460;73;21136;-83
2022/08/23 06:09:57;;;;;;;4.17;1.77;;;31.80;91.20;;;;;;1946821;73;21140;-82
2022/08/23 06:12:30;;;;;;;5.62;1.92;;;31.90;91.10;;;;;;1953544;73;21168;-83
2022/08/23 06:15:02;;;;;;;3.17;1.67;;;32.00;91.10;;;;;;1929050;73;21611;-82
2022/08/23 06:17:39;;;;;;;4.58;1.80;;;32.00;91.10;;;;;;1953206;73;21477;-83
2022/08/23 06:20:15;;;;;;;2.87;1.70;;;32.20;90.80;;;;;;1956553;73;21608;-82
2022/08/23 06:22:48;;;;;;;4.33;1.70;;;32.30;91.20;;;;;;1968136;72;21140;-83
2022/08/23 06:25:23;;;;;;;5.20;2.30;;;32.30;90.80;;;;;;1908042;73;21080;-83
2022/08/23 06:27:54;;;;;;;9.23;2.25;;;32.40;90.20;;;;;;1922171;74;21122;-83
2022/08/23 06:30:27;;;;;;;5.60;2.20;;;32.30;90.40;;;;;;1924327;74;21141;-82
2022/08/23 06:33:00;;;;;;;3.17;1.87;;;32.20;90.70;;;;;;1931689;73;21119;-82
2022/08/23 06:35:31;;;;;;;5.67;2.75;;;32.20;90.50;;;;;;1918003;74;21198;-83
2022/08/23 06:38:08;;;;;;;7.25;2.47;;;32.10;90.70;;;;;;1926227;73;21135;-84
2022/08/23 06:40:37;;;;;;;3.90;1.77;;;32.10;90.80;;;;;;1920784;73;21079;-83
2022/08/23 06:43:08;;;;;;;4.17;2.20;;;32.00;90.80;;;;;;1927933;73;21162;-84
2022/08/23 06:45:40;;;;;;;4.03;1.90;;;32.00;90.80;;;;;;1940490;73;21059;-85
2022/08/23 06:48:15;;;;;;;6.17;2.90;;;32.00;90.60;;;;;;1947799;73;21815;-84
2022/08/23 06:50:50;;;;;;;6.33;1.95;;;32.10;91.90;;;;;;1933019;73;21157;-85
2022/08/23 06:53:22;;;;;;;5.17;2.65;;;32.10;90.80;;;;;;1912371;74;21137;-85
2022/08/23 06:55:59;;;;;;;12.00;7.17;;;32.10;90.80;;;;;;1909149;75;21263;-84
2022/08/23 06:58:30;;;;;;;5.95;3.40;;;32.00;90.70;;;;;;1885182;74;21357;-84
2022/08/23 07:01:05;;;;;;;3.15;1.82;;;32.00;90.80;;;;;;1887861;75;21272;-83
2022/08/23 07:03:39;;;;;;;9.55;4.20;;;32.00;90.80;;;;;;1888347;75;21228;-84
2022/08/23 07:06:10;;;;;;;4.65;1.90;;;32.00;90.70;;;;;;1912851;74;21302;-84
2022/08/23 07:08:41;;;;;;;8.80;5.03;;;32.00;90.90;;;;;;1912015;75;21109;-84
2022/08/23 07:11:14;;;;;;;8.25;4.87;;;32.00;90.80;;;;;;1900124;75;21139;-85
2022/08/23 07:13:44;;;;;;;9.08;5.05;;;32.00;91.20;;;;;;1913889;74;21075;-87
2022/08/23 07:16:17;;;;;;;5.25;3.50;;;32.20;90.90;;;;;;1875354;75;21142;-84
2022/08/23 07:18:54;;;;;;;4.95;2.47;;;32.30;90.00;;;;;;1909457;74;21131;-85
2022/08/23 07:21:20;;;;;;;10.10;5.03;;;32.50;88.10;;;;;;1914837;74;21133;-85
2022/08/23 07:23:52;;;;;;;5.30;3.70;;;32.60;88.60;;;;;;1891216;75;21140;-84
2022/08/23 07:26:29;;;;;;;4.17;2.62;;;32.70;87.60;;;;;;1897074;75;21193;-85
2022/08/23 07:29:10;;;;;;;5.97;3.20;;;32.80;87.70;;;;;;1887895;75;21148;-84
2022/08/23 07:31:43;;;;;;;3.70;1.52;;;32.90;87.10;;;;;;1907582;74;21110;-86
2022/08/23 07:34:16;;;;;;;3.02;1.60;;;33.00;84.70;;;;;;1918404;74;21195;-85
2022/08/23 07:36:50;;;;;;;5.25;2.60;;;33.00;84.00;;;;;;1900072;75;21058;-85
2022/08/23 07:39:25;;;;;;;4.87;3.00;;;32.90;85.10;;;;;;1896399;75;21210;-84
2022/08/23 07:42:03;;;;;;;5.03;2.47;;;32.90;86.30;;;;;;1898304;75;21090;-83
2022/08/23 07:44:43;;;;;;;2.83;1.37;;;32.90;83.90;;;;;;1899549;74;21621;-84
2022/08/23 07:47:18;;;;;;;4.08;1.72;;;32.90;84.90;;;;;;1913712;74;21112;-83
2022/08/23 07:49:55;;;;;;;4.25;1.42;;;33.00;85.30;;;;;;1915334;74;21117;-85
2022/08/23 07:52:31;;;;;;;3.72;1.70;;;33.00;85.80;;;;;;1888879;75;21250;-86
2022/08/23 07:55:02;;;;;;;2.35;1.40;;;33.00;86.20;;;;;;1894816;75;21237;-85
2022/08/23 07:57:34;;;;;;;3.25;1.80;;;33.00;85.70;;;;;;1894325;73;21165;-85
2022/08/23 08:00:09;;;;;;;3.55;1.35;;;33.00;85.10;;;;;;1902293;74;21246;-84
2022/08/23 08:02:44;;;;;;;4.80;1.22;;;33.00;85.50;;;;;;1922223;74;21111;-83
2022/08/23 08:05:16;;;;;;;3.10;1.50;;;33.00;86.00;;;;;;1921642;74;21160;-84
2022/08/23 08:07:48;;;;;;;4.75;1.40;;;33.10;85.50;;;;;;1924583;73;21256;-84
2022/08/23 08:10:22;;;;;;;4.00;1.60;;;33.10;85.00;;;;;;1959914;73;21194;-84
2022/08/23 08:12:53;;;;;;;5.53;1.70;;;33.10;85.00;;;;;;1923543;73;21163;-84
2022/08/23 08:15:25;;;;;;;3.00;1.50;;;33.10;85.00;;;;;;1921380;74;21156;-82
2022/08/23 08:17:56;;;;;;;4.08;1.30;;;33.20;85.00;;;;;;1922335;74;21226;-84
2022/08/23 08:20:29;;;;;;;3.62;1.60;;;33.20;83.80;;;;;;1913558;75;21238;-83
2022/08/23 08:23:01;;;;;;;2.92;1.32;;;33.10;84.20;;;;;;1927799;73;21161;-86
2022/08/23 08:25:33;;;;;;;3.10;1.50;;;33.10;84.50;;;;;;1955640;73;21116;-85
2022/08/23 08:28:04;;;;;;;3.12;1.60;;;33.10;84.60;;;;;;1959067;73;21197;-82
2022/08/23 08:30:37;;;;;;;2.20;1.20;;;33.10;84.60;;;;;;1922847;73;21142;-81
2022/08/23 08:33:10;;;;;;;6.45;1.92;;;33.10;82.10;;;;;;1936823;74;21133;-80
2022/08/23 08:35:45;;;;;;;5.03;1.45;;;33.10;83.10;;;;;;1926882;73;21166;-82
2022/08/23 08:38:16;;;;;;;;;;;33.00;84.20;;;;;;1960016;73;21071;-83
2022/08/23 08:40:51;;;;;;;3.25;1.30;;;32.90;84.40;;;;;;1959027;72;20710;-83
2022/08/23 08:43:25;;;;;;;4.85;1.60;;;32.90;83.80;;;;;;1959081;73;21121;-82
2022/08/23 08:45:58;;;;;;;2.30;1.20;;;32.80;85.70;;;;;;1956310;73;21099;-85
2022/08/23 08:48:32;;;;;;;2.50;1.30;;;32.80;84.90;;;;;;1958339;73;21223;-83
2022/08/23 08:51:07;;;;;;;3.90;1.65;;;32.80;86.20;;;;;;1917047;73;21129;-83
2022/08/23 08:53:45;;;;;;;3.22;1.40;;;32.80;85.60;;;;;;1891979;75;21635;-83
2022/08/23 08:56:17;;;;;;;;;;;32.80;85.30;;;;;;1910947;74;21454;-83
2022/08/23 08:58:50;;;;;;;3.33;1.70;;;32.80;84.60;;;;;;1958674;73;20138;-83
2022/08/23 09:01:24;;;;;;;3.95;1.10;;;32.80;85.80;;;;;;1959699;73;21069;-82
2022/08/23 09:04:06;;;;;;;;;;;32.70;86.20;;;;;;1951901;72;21636;-83
2022/08/23 09:06:40;;;;;;;3.75;1.45;;;32.70;86.60;;;;;;1947082;73;20219;-83
2022/08/23 09:09:16;;;;;;;3.95;1.65;;;32.60;86.10;;;;;;1955273;72;21117;-82
2022/08/23 09:11:57;;;;;;;4.60;2.10;;;32.60;85.50;;;;;;1959991;73;21072;-83
2022/08/23 09:14:30;;;;;;;6.25;2.00;;;32.60;85.30;;;;;;1904892;73;21139;-80
2022/08/23 09:20:08;;;;;;;2.67;1.45;;;32.60;86.30;;;;;;1918801;70;21568;-80
2022/08/23 09:22:57;;;;;;;4.58;1.80;;;32.60;85.60;;;;;;1740359;82;21176;-82
2022/08/23 09:25:36;;;;;;;3.27;1.60;;;32.60;84.90;;;;;;1747156;81;21684;-82
2022/08/23 09:28:07;;;;;;;4.35;2.08;;;32.60;85.20;;;;;;1745350;82;21152;-83
2022/08/23 09:30:40;;;;;;;4.30;1.65;;;32.50;85.90;;;;;;1748958;81;21156;-82
2022/08/23 09:33:14;;;;;;;3.52;1.30;;;32.50;86.50;;;;;;1742510;82;21223;-83
2022/08/23 09:35:46;;;;;;;5.45;1.75;;;32.50;86.40;;;;;;1750765;82;22133;-83
2022/08/23 09:38:19;;;;;;;5.83;2.47;;;32.50;86.20;;;;;;1748232;82;21249;-82
2022/08/23 09:40:53;;;;;;;5.58;1.75;;;32.40;86.30;;;;;;1739475;81;21195;-81
2022/08/23 09:43:30;;;;;;;4.67;1.77;;;32.40;86.30;;;;;;1737900;82;21266;-82
2022/08/23 09:46:03;;;;;;;3.60;2.00;;;32.40;86.10;;;;;;1741293;82;21259;-83
2022/08/23 09:48:39;;;;;;;5.08;1.90;;;32.40;87.10;;;;;;1741750;82;21242;-85
2022/08/23 09:51:13;;;;;;;5.25;2.12;;;32.40;87.50;;;;;;1744492;81;21192;-83
2022/08/23 09:53:48;;;;;;;2.17;1.50;;;32.40;86.70;;;;;;1812861;77;21190;-83
2022/08/23 09:56:21;;;;;;;3.52;1.50;;;32.40;87.10;;;;;;1841512;77;21159;-84
2022/08/23 09:58:53;;;;;;;4.53;1.75;;;32.40;86.40;;;;;;1787990;79;21239;-82
2022/08/23 10:01:26;;;;;;;5.58;2.70;;;32.40;86.80;;;;;;1848708;77;21075;-82
2022/08/23 10:04:03;;;;;;;3.70;2.15;;;32.40;87.20;;;;;;1854996;77;21143;-81
2022/08/23 10:06:35;;;;;;;5.17;2.42;;;32.30;86.90;;;;;;1846345;77;21211;-84
2022/08/23 10:09:08;;;;;;;5.40;2.58;;;32.30;86.80;;;;;;1848269;77;21131;-83
2022/08/23 10:11:43;;;;;;;4.45;2.00;;;32.30;87.00;;;;;;1846597;77;21162;-83
2022/08/23 10:14:19;;;;;;;5.03;2.05;;;32.30;87.20;;;;;;1849452;77;21162;-85
2022/08/23 10:16:52;;;;;;;5.03;2.47;;;32.30;87.50;;;;;;1851804;77;21084;-84
2022/08/23 10:19:25;;;;;;;3.77;2.10;;;32.30;87.30;;;;;;1853326;76;21114;-83
2022/08/23 10:21:59;;;;;;;4.47;2.25;;;32.20;87.60;;;;;;1855024;77;21776;-84
2022/08/23 10:24:32;;;;;;;4.92;2.33;;;32.20;86.90;;;;;;1857650;77;21352;-82
2022/08/23 10:29:36;;;;;;;3.98;2.12;;;32.20;87.60;;;;;;1855577;77;21725;-82
2022/08/23 10:29:47;;;;;;;5.15;2.20;;;32.10;87.40;;;;;;1847254;77;21642;-84
2022/08/23 10:32:16;;;;;;;5.83;2.50;;;32.00;87.10;;;;;;1785070;79;21236;-85
2022/08/23 10:34:50;;;;;;;3.30;2.12;;;32.00;87.30;;;;;;1851494;77;21126;-86
2022/08/23 10:37:23;;;;;;;6.50;2.35;;;32.00;87.30;;;;;;1852191;77;21140;-83
2022/08/23 10:39:55;;;;;;;3.25;1.60;;;32.00;87.60;;;;;;1852931;77;21197;-82
2022/08/23 10:42:30;;;;;;;6.53;2.10;;;32.00;87.90;;;;;;1855032;77;21084;-81
2022/08/23 10:45:05;;;;;;;3.15;2.08;;;31.90;87.50;;;;;;1847071;77;21160;-82
2022/08/23 10:47:41;;;;;;;4.12;2.00;;;31.90;87.50;;;;;;1850438;77;21162;-82
2022/08/23 10:50:13;;;;;;;4.97;2.20;;;31.80;87.40;;;;;;1850657;77;21175;-82
2022/08/23 10:52:47;;;;;;;8.00;2.17;;;31.80;88.30;;;;;;1787993;80;21176;-81
2022/08/23 10:55:33;;;;;;;4.70;2.30;;;31.80;88.50;;;;;;1806769;79;21233;-81
2022/08/23 10:57:54;;;;;;;5.30;1.82;;;31.70;88.60;;;;;;1858044;77;21140;-83
2022/08/23 11:00:29;;;;;;;3.90;1.80;;;31.70;88.90;;;;;;1854825;77;21186;-81
2022/08/23 11:03:04;;;;;;;5.12;1.98;;;31.60;88.90;;;;;;1811899;79;21131;-82
2022/08/23 11:05:39;;;;;;;3.67;2.00;;;31.60;88.80;;;;;;1849115;77;21163;-80
2022/08/23 11:08:12;;;;;;;3.20;1.95;;;31.60;88.80;;;;;;1844738;77;21175;-82
2022/08/23 11:10:47;;;;;;;3.42;1.80;;;31.50;89.20;;;;;;1850494;77;21147;-82
2022/08/23 11:13:20;;;;;;;5.33;2.10;;;31.50;89.40;;;;;;1860211;76;21575;-81
2022/08/23 11:15:53;;;;;;;3.02;1.70;;;31.50;89.30;;;;;;1858847;76;21136;-82
2022/08/23 11:18:27;;;;;;;4.45;2.00;;;31.50;89.20;;;;;;1859714;77;21482;-81
2022/08/23 11:21:01;;;;;;;5.20;1.90;;;31.40;89.20;;;;;;1851274;77;21183;-82
2022/08/23 11:23:33;;;;;;;4.87;1.62;;;31.40;88.70;;;;;;1847057;76;21079;-81
2022/08/23 11:26:10;;;;;;;4.67;1.60;;;31.40;87.60;;;;;;1844163;77;21178;-82
2022/08/23 11:28:48;;;;;;;7.33;2.50;;;31.40;87.70;;;;;;1854601;77;21201;-83
2022/08/23 11:31:18;;;;;;;4.78;2.00;;;31.30;87.40;;;;;;1856092;76;21201;-81
2022/08/23 11:33:56;;;;;;;4.60;1.92;;;31.30;87.40;;;;;;1849987;73;21207;-80
2022/08/23 11:36:27;;;;;;;;;;;31.40;88.00;;;;;;1856799;77;21202;-82
2022/08/23 11:38:57;;;;;;;7.47;2.58;;;31.30;88.30;;;;;;1854006;77;20217;-80
2022/08/23 11:41:28;;;;;;;6.03;2.90;;;31.30;88.60;;;;;;1850188;74;21125;-82
2022/08/23 11:44:02;;;;;;;7.33;2.33;;;31.30;88.90;;;;;;1853064;73;21156;-82
2022/08/23 11:46:53;;;;;;;4.30;2.20;;;31.20;88.90;;;;;;1851636;77;21064;-81
2022/08/23 11:49:16;;;;;;;4.50;2.62;;;31.20;89.30;;;;;;1853988;77;21089;-80
2022/08/23 11:51:53;;;;;;;6.00;3.20;;;31.20;89.30;;;;;;1850499;77;21220;-82
2022/08/23 11:54:29;;;;;;;4.55;2.67;;;31.20;89.70;;;;;;1843584;77;21161;-83
2022/08/23 11:57:01;;;;;;;6.92;3.35;;;31.10;90.00;;;;;;1851839;77;21680;-82
2022/08/23 11:59:33;;;;;;;4.85;2.67;;;31.10;90.30;;;;;;1845796;76;21144;-82
2022/08/23 12:02:09;;;;;;;11.43;3.10;;;31.10;90.30;;;;;;1835430;77;21451;-82
2022/08/23 12:04:46;;;;;;;7.95;3.08;;;31.10;90.40;;;;;;1844910;77;21233;-83
2022/08/23 12:07:19;;;;;;;8.83;3.35;;;31.10;90.40;;;;;;1818211;79;21577;-82
2022/08/23 12:09:53;;;;;;;10.32;3.55;;;31.00;90.50;;;;;;1839605;76;21119;-82
2022/08/23 12:12:38;;;;;;;8.63;4.17;;;31.00;90.60;;;;;;1853767;73;21146;-82
2022/08/23 12:15:20;;;;;;;8.50;6.00;;;31.00;91.10;;;;;;1869691;75;21207;-83
2022/08/23 12:18:00;;;;;;;11.18;6.65;;;30.90;91.30;;;;;;1862619;76;21169;-80
2022/08/23 12:20:36;;;;;;;11.20;5.55;;;30.90;91.40;;;;;;1883204;76;21158;-82
2022/08/23 12:23:14;;;;;;;9.33;5.17;;;30.90;91.50;;;;;;1763180;80;21198;-82
2022/08/23 12:25:47;;;;;;;6.47;4.45;;;30.90;92.00;;;;;;1873523;75;21200;-82
2022/08/23 12:28:33;;;;;;;;;;;;;;;;;;;;;
2022/08/23 12:31:14;;;;;;;7.87;4.83;;;30.90;91.90;;;;;;1899573;75;21103;-81
2022/08/23 12:33:50;;;;;;;8.73;4.90;;;30.90;92.00;;;;;;1900446;74;21138;-82
2022/08/23 12:36:27;;;;;;;7.37;4.35;;;30.90;92.20;;;;;;1865497;75;21079;-83
2022/08/23 12:39:00;;;;;;;12.98;4.20;;;30.90;92.20;;;;;;1874480;74;21146;-82
2022/08/23 12:41:47;;;;;;;9.23;4.37;;;30.90;92.40;;;;;;1880585;75;21080;-81
2022/08/23 12:44:13;;;;;;;8.15;4.20;;;30.90;92.40;;;;;;1861502;75;21115;-82
2022/08/23 12:46:51;;;;;;;6.97;4.50;;;30.90;92.40;;;;;;1831221;78;21202;-82
2022/08/23 12:49:26;;;;;;;7.12;4.20;;;30.90;92.60;;;;;;1827190;77;21604;-82
2022/08/23 12:52:01;;;;;;;8.53;4.65;;;30.80;92.60;;;;;;1854062;76;21243;-83
2022/08/23 12:54:34;;;;;;;7.78;4.90;;;30.80;92.70;;;;;;1843853;77;21218;-81
2022/08/23 12:57:10;;;;;;;10.08;5.00;;;30.90;92.90;;;;;;1846431;77;21703;-81
2022/08/23 12:59:41;;;;;;;7.80;4.78;;;30.90;92.90;;;;;;1841875;77;21105;-81
2022/08/23 13:02:16;;;;;;;12.33;5.40;;;30.80;93.10;;;;;;1858632;76;21113;-81
2022/08/23 13:04:47;;;;;;;9.15;5.00;;;30.80;93.30;;;;;;1854991;77;21136;-82
2022/08/23 13:07:21;;;;;;;13.60;6.20;;;30.80;93.40;;;;;;1851223;77;21235;-82
2022/08/23 13:09:55;;;;;;;9.55;5.22;;;30.80;93.70;;;;;;1841947;77;21175;-82
2022/08/23 13:12:28;;;;;;;10.72;5.55;;;30.70;93.80;;;;;;1843871;76;21223;-82
2022/08/23 13:15:01;;;;;;;11.75;5.12;;;30.70;94.00;;;;;;1897133;75;21190;-82
2022/08/23 13:17:35;;;;;;;7.95;4.85;;;30.70;94.10;;;;;;1909766;74;21228;-82
2022/08/23 13:20:07;;;;;;;9.53;5.08;;;30.70;93.90;;;;;;1910672;74;21135;-81
2022/08/23 13:22:43;;;;;;;9.05;5.70;;;30.70;93.90;;;;;;1904035;75;21212;-81
2022/08/23 13:25:16;;;;;;;9.08;5.37;;;30.70;93.90;;;;;;1902825;75;21068;-81
2022/08/23 13:27:49;;;;;;;10.00;4.65;;;30.60;94.00;;;;;;1881770;74;21105;-82
2022/08/23 13:30:24;;;;;;;11.70;5.60;;;30.60;93.80;;;;;;1869098;75;21173;-80
2022/08/23 13:32:58;;;;;;;11.20;4.50;;;30.70;93.90;;;;;;1909915;74;21162;-81
2022/08/23 13:35:31;;;;;;;9.18;4.80;;;30.70;94.00;;;;;;1883712;75;21618;-81
2022/08/23 13:38:05;;;;;;;11.73;5.12;;;30.70;94.20;;;;;;1914740;74;21127;-81